createdAt,value
2022-11-07T00:01:51.105Z,10.43
2022-11-07T00:06:44.571Z,5.00
2022-11-07T00:11:39.335Z,8.48
2022-11-07T00:16:33.742Z,6.88
2022-11-07T00:21:29.915Z,8.50
2022-11-07T00:26:23.077Z,8.50
2022-11-07T00:31:19.101Z,8.35
2022-11-07T00:36:18.350Z,8.95
2022-11-07T00:41:11.637Z,10.03
2022-11-07T00:46:06.818Z,8.02
2022-11-07T00:51:06.677Z,7.55
2022-11-07T00:56:02.374Z,9.93
2022-11-07T01:00:55.644Z,8.25
2022-11-07T01:05:57.833Z,8.48
2022-11-07T01:10:52.471Z,9.48
2022-11-07T01:15:47.541Z,9.77
2022-11-07T01:20:41.228Z,8.50
2022-11-07T01:25:34.355Z,8.77
2022-11-07T01:30:29.023Z,9.30
2022-11-07T01:35:22.223Z,13.07
2022-11-07T01:40:15.691Z,7.65
2022-11-07T01:45:16.234Z,12.23
2022-11-07T01:50:11.756Z,10.90
2022-11-07T01:55:10.083Z,8.80
2022-11-07T02:00:09.063Z,10.20
2022-11-07T02:05:04.651Z,10.05
2022-11-07T02:10:00.340Z,8.73
2022-11-07T02:14:53.688Z,9.55
2022-11-07T02:19:49.850Z,12.15
2022-11-07T02:24:44.569Z,9.18
2022-11-07T02:29:40.500Z,10.60
2022-11-07T02:34:33.792Z,8.57
2022-11-07T02:39:27.562Z,8.20
2022-11-07T02:44:22.408Z,10.45
2022-11-07T02:49:15.663Z,7.93
2022-11-07T02:54:08.953Z,8.32
2022-11-07T02:59:02.136Z,7.93
2022-11-07T03:03:56.841Z,8.63
2022-11-07T03:08:50.069Z,10.75
2022-11-07T03:13:43.257Z,7.80
2022-11-07T03:18:37.233Z,8.55
2022-11-07T03:23:32.160Z,9.13
2022-11-07T03:28:25.986Z,9.60
2022-11-07T03:33:19.347Z,11.07
2022-11-07T03:38:12.938Z,9.68
2022-11-07T03:43:07.494Z,8.35
2022-11-07T03:48:00.675Z,11.13
2022-11-07T03:52:54.146Z,10.25
2022-11-07T03:57:49.281Z,11.43
2022-11-07T04:02:44.577Z,8.43
2022-11-07T04:07:37.805Z,13.80
2022-11-07T04:12:48.733Z,10.15
2022-11-07T04:17:43.412Z,10.13
2022-11-07T04:22:36.688Z,12.73
2022-11-07T04:27:47.037Z,10.13
2022-11-07T04:32:40.239Z,8.30
2022-11-07T04:37:34.853Z,10.55
2022-11-07T04:42:28.084Z,9.82
2022-11-07T04:47:21.349Z,12.20
2022-11-07T04:52:14.944Z,12.35
2022-11-07T04:57:09.542Z,10.10
2022-11-07T05:02:02.976Z,11.18
2022-11-07T05:06:56.248Z,11.95
2022-11-07T05:11:50.057Z,14.73
2022-11-07T05:16:44.999Z,14.38
2022-11-07T05:21:38.217Z,11.65
2022-11-07T05:26:31.474Z,12.13
2022-11-07T05:31:24.759Z,18.58
2022-11-07T05:36:20.780Z,12.55
2022-11-07T05:41:15.393Z,11.15
2022-11-07T05:46:09.485Z,11.80
2022-11-07T05:51:03.149Z,14.18
2022-11-07T05:55:58.249Z,12.80
2022-11-07T06:00:54.263Z,11.32
2022-11-07T06:05:47.740Z,13.25
2022-11-07T06:10:43.049Z,13.40
2022-11-07T06:15:38.972Z,14.85
2022-11-07T06:20:32.437Z,12.55
2022-11-07T06:25:26.063Z,12.52
2022-11-07T06:30:19.373Z,11.80
2022-11-07T06:35:14.569Z,12.85
2022-11-07T06:40:09.349Z,13.82
2022-11-07T06:45:02.727Z,14.93
2022-11-07T06:49:55.776Z,12.73
2022-11-07T06:54:50.246Z,12.02
2022-11-07T06:59:47.650Z,16.90
2022-11-07T07:04:44.440Z,14.95
2022-11-07T07:09:37.504Z,11.60
2022-11-07T07:14:32.184Z,14.05
2022-11-07T07:19:25.255Z,12.88
2022-11-07T07:24:18.936Z,16.52
2022-11-07T07:29:12.154Z,18.70
2022-11-07T07:34:06.634Z,14.30
2022-11-07T07:39:00.143Z,14.00
2022-11-07T07:43:53.234Z,17.17
2022-11-07T07:48:47.075Z,12.95
2022-11-07T07:53:44.746Z,14.07
2022-11-07T07:58:37.807Z,14.07
2022-11-07T08:03:50.616Z,15.07
2022-11-07T08:08:45.361Z,13.27
2022-11-07T08:13:38.462Z,14.55
2022-11-07T08:18:31.731Z,13.02
2022-11-07T08:23:25.805Z,14.73
2022-11-07T08:28:21.538Z,14.23
2022-11-07T08:33:14.874Z,14.23
2022-11-07T08:38:08.178Z,14.63
2022-11-07T08:43:01.657Z,13.18
2022-11-07T08:47:59.525Z,12.68
2022-11-07T08:52:52.704Z,13.15
2022-11-07T08:57:45.760Z,13.75
2022-11-07T09:03:18.374Z,9.68
2022-11-07T09:07:55.848Z,12.60
2022-11-07T09:12:50.527Z,10.05
2022-11-07T09:17:43.550Z,11.40
2022-11-07T09:22:36.714Z,11.95
2022-11-07T09:27:31.149Z,10.85
2022-11-07T09:32:43.877Z,14.80
2022-11-07T09:37:39.002Z,11.80
2022-11-07T09:42:43.983Z,13.52
2022-11-07T09:47:40.860Z,12.75
2022-11-07T09:52:41.096Z,11.20
2022-11-07T10:02:33.832Z,12.07
2022-11-07T10:07:43.102Z,18.25
2022-11-07T10:13:03.974Z,14.02
2022-11-07T10:18:09.029Z,13.02
2022-11-07T10:23:30.193Z,18.65
2022-11-07T10:28:27.635Z,13.30
2022-11-07T10:33:35.558Z,11.77
2022-11-07T10:38:30.752Z,11.30
2022-11-07T10:43:34.111Z,12.05
2022-11-07T10:48:29.520Z,14.82
2022-11-07T10:53:25.135Z,16.42
2022-11-07T10:58:21.627Z,10.27
2022-11-07T11:03:41.947Z,13.45
2022-11-07T11:08:38.648Z,13.02
2022-11-07T11:13:33.902Z,12.45
2022-11-07T11:18:28.627Z,24.83
2022-11-07T11:23:24.871Z,11.80
2022-11-07T11:28:25.075Z,10.00
2022-11-07T11:38:18.612Z,9.38
2022-11-07T11:43:21.130Z,8.15
2022-11-07T11:48:25.060Z,10.13
2022-11-07T11:53:22.219Z,10.32
2022-11-07T11:58:24.660Z,9.93
2022-11-07T12:03:40.668Z,8.93
2022-11-07T12:08:50.642Z,14.02
2022-11-07T12:13:51.946Z,10.75
2022-11-07T12:18:49.468Z,10.63
2022-11-07T12:24:04.003Z,13.13
2022-11-07T12:29:06.810Z,10.50
2022-11-07T12:34:09.786Z,11.23
2022-11-07T12:39:28.113Z,8.85
2022-11-07T12:44:46.801Z,10.05
2022-11-07T12:50:05.147Z,10.02
2022-11-07T12:55:03.550Z,15.23
2022-11-07T13:00:00.585Z,14.32
2022-11-07T13:04:59.524Z,14.55
2022-11-07T13:09:58.382Z,13.15
2022-11-07T13:14:53.475Z,11.30
2022-11-07T13:19:47.619Z,15.75
2022-11-07T13:24:52.803Z,17.73
2022-11-07T13:29:45.859Z,12.75
2022-11-07T13:34:46.097Z,12.40
2022-11-07T13:44:36.531Z,11.13
2022-11-07T13:49:37.692Z,12.73
2022-11-07T13:54:41.070Z,11.60
2022-11-07T13:59:43.359Z,9.45
2022-11-07T14:04:44.545Z,10.13
2022-11-07T14:09:53.771Z,14.45
2022-11-07T14:14:47.683Z,14.40
2022-11-07T14:19:40.756Z,12.23
2022-11-07T14:24:34.224Z,11.85
2022-11-07T14:29:29.073Z,11.82
2022-11-07T14:34:23.916Z,13.30
2022-11-07T14:39:20.088Z,11.65
2022-11-07T14:44:17.214Z,13.88
2022-11-07T14:49:26.343Z,16.27
2022-11-07T14:54:22.093Z,17.23
2022-11-07T14:59:17.251Z,22.90
2022-11-07T15:04:27.178Z,18.02
2022-11-07T15:09:31.456Z,18.83
2022-11-07T15:14:27.179Z,29.90
2022-11-07T15:19:24.570Z,32.00
2022-11-07T15:24:34.308Z,28.23
2022-11-07T15:29:32.879Z,28.33
2022-11-07T15:34:52.607Z,38.80
2022-11-07T15:39:43.131Z,38.20
2022-11-07T15:44:36.482Z,33.53
2022-11-07T15:49:32.036Z,40.65
2022-11-07T15:54:25.275Z,36.05
2022-11-07T15:59:21.060Z,34.53
2022-11-07T16:04:14.393Z,39.28
2022-11-07T16:09:15.049Z,48.67
2022-11-07T16:14:42.201Z,39.65
2022-11-07T16:19:32.067Z,40.10
2022-11-07T16:24:28.465Z,37.83
2022-11-07T16:29:21.802Z,40.97
2022-11-07T16:34:15.059Z,38.95
2022-11-07T16:39:14.719Z,38.78
2022-11-07T16:44:10.976Z,45.55
2022-11-07T16:49:13.821Z,54.58
2022-11-07T16:54:07.107Z,53.47
2022-11-07T16:59:00.930Z,47.70
2022-11-07T17:03:55.860Z,55.70
2022-11-07T17:08:49.608Z,49.65
2022-11-07T17:13:42.859Z,51.95
2022-11-07T17:18:36.057Z,56.20
2022-11-07T17:23:31.047Z,81.28
2022-11-07T17:28:25.660Z,76.05
2022-11-07T17:33:18.818Z,74.95
2022-11-07T17:38:17.658Z,77.10
2022-11-07T17:43:12.677Z,55.25
2022-11-07T17:48:08.360Z,71.95
2022-11-07T17:53:01.547Z,67.07
2022-11-07T17:57:55.614Z,77.03
2022-11-07T18:02:54.107Z,58.03
2022-11-07T18:07:50.962Z,59.25
2022-11-07T18:12:53.157Z,82.18
2022-11-07T18:17:53.849Z,104.43
2022-11-07T18:22:54.498Z,86.43
2022-11-07T18:27:55.913Z,77.40
2022-11-07T18:32:49.215Z,48.20
2022-11-07T18:37:45.588Z,71.22
2022-11-07T18:42:42.097Z,72.10
2022-11-07T18:47:36.100Z,67.88
2022-11-07T18:52:37.308Z,83.88
2022-11-07T18:57:36.583Z,48.33
2022-11-07T19:02:31.174Z,45.80
2022-11-07T19:07:24.861Z,41.75
2022-11-07T19:12:20.416Z,42.83
2022-11-07T19:17:18.724Z,46.35
2022-11-07T19:22:15.078Z,49.03
2022-11-07T19:27:13.829Z,46.60
2022-11-07T19:32:08.103Z,45.83
2022-11-07T19:37:07.937Z,45.63
2022-11-07T19:42:03.785Z,43.90
2022-11-07T19:47:00.906Z,49.10
2022-11-07T19:51:54.623Z,52.08
2022-11-07T19:56:53.258Z,45.05
2022-11-07T20:02:11.033Z,37.92
2022-11-07T20:07:10.390Z,34.33
2022-11-07T20:12:06.815Z,33.20
2022-11-07T20:17:05.120Z,36.25
2022-11-07T20:21:58.715Z,42.20
2022-11-07T20:26:53.963Z,37.33
2022-11-07T20:31:48.736Z,89.80
2022-11-07T20:36:42.870Z,59.60
2022-11-07T20:41:36.530Z,72.80
2022-11-07T20:46:41.274Z,55.97
2022-11-07T20:51:36.352Z,56.60
2022-11-07T20:56:34.321Z,47.35
2022-11-07T21:01:36.390Z,42.65
2022-11-07T21:06:33.615Z,39.35
2022-11-07T21:11:34.304Z,32.65
2022-11-07T21:16:34.624Z,36.65
2022-11-07T21:21:47.205Z,29.42
2022-11-07T21:26:42.173Z,33.42
2022-11-07T21:31:37.920Z,26.25
2022-11-07T21:36:33.808Z,26.90
2022-11-07T21:41:27.822Z,36.65
2022-11-07T21:46:25.589Z,28.83
2022-11-07T21:51:22.575Z,29.73
2022-11-07T21:56:17.731Z,36.22
2022-11-07T22:01:11.721Z,34.10
2022-11-07T22:06:10.363Z,34.45
2022-11-07T22:11:03.593Z,34.72
2022-11-07T22:16:12.109Z,34.33
2022-11-07T22:21:16.342Z,28.23
2022-11-07T22:26:13.533Z,30.83
2022-11-07T22:31:07.602Z,27.38
2022-11-07T22:36:01.555Z,29.77
2022-11-07T22:41:01.742Z,39.13
2022-11-07T22:45:54.914Z,32.45
2022-11-07T22:50:48.195Z,27.23
2022-11-07T22:55:41.460Z,32.25
2022-11-07T23:00:35.991Z,28.48
2022-11-07T23:05:30.577Z,28.80
2022-11-07T23:10:27.658Z,28.90
2022-11-07T23:15:21.644Z,34.80
2022-11-07T23:20:30.117Z,42.45
2022-11-07T23:25:26.839Z,31.70
2022-11-07T23:30:20.312Z,30.15
2022-11-07T23:35:13.679Z,22.27
2022-11-07T23:40:11.561Z,19.13
2022-11-07T23:45:22.424Z,22.08
2022-11-07T23:55:43.948Z,20.08
